Time;durP1;ratioP1;P1;durP2;ratioP2;P2;SDS_P1;SDS_P2;PMS_P1;PMS_P2;Temp;Humidity;BMP_temperature;BMP_pressure;BME280_temperature;BME280_humidity;BME280_pressure;Samples;Min_cycle;Max_cycle;Signal;HPM_P1;HPM_P2
2021/07/30 00:00:05;;;;;;;3.38;1.55;;;25.00;41.80;;;;;;5036986;28;20081;-62
2021/07/30 00:02:32;;;;;;;2.33;1.00;;;25.00;41.80;;;;;;5055286;28;20029;-61
2021/07/30 00:04:58;;;;;;;2.42;1.60;;;25.00;41.80;;;;;;5054378;28;20053;-61
2021/07/30 00:07:25;;;;;;;1.50;1.30;;;25.00;41.80;;;;;;5054530;28;20122;-61
2021/07/30 00:09:52;;;;;;;2.25;1.33;;;25.00;41.80;;;;;;5031821;28;20021;-61
2021/07/30 00:12:18;;;;;;;3.20;1.40;;;25.00;41.70;;;;;;5054020;28;20033;-60
2021/07/30 00:14:44;;;;;;;2.17;1.50;;;25.00;41.70;;;;;;5054255;28;20021;-61
2021/07/30 00:17:12;;;;;;;1.48;1.20;;;25.00;41.60;;;;;;5053845;28;20052;-62
2021/07/30 00:19:38;;;;;;;2.33;1.48;;;25.00;41.60;;;;;;5054591;28;20045;-62
2021/07/30 00:22:04;;;;;;;3.20;1.83;;;24.90;41.60;;;;;;5051797;28;20060;-61
2021/07/30 00:24:30;;;;;;;2.25;1.60;;;24.90;41.50;;;;;;5050150;28;20056;-61
2021/07/30 00:26:55;;;;;;;2.45;1.65;;;24.90;41.50;;;;;;5051960;28;20029;-61
2021/07/30 00:29:21;;;;;;;2.85;1.90;;;25.00;41.50;;;;;;5036527;28;20021;-61
2021/07/30 00:31:47;;;;;;;1.85;1.25;;;24.90;41.50;;;;;;5054069;28;20027;-61
2021/07/30 00:34:13;;;;;;;2.35;1.40;;;24.90;42.00;;;;;;5034418;28;20021;-60
2021/07/30 00:36:38;;;;;;;3.10;1.70;;;24.90;41.40;;;;;;5052902;28;20033;-60
2021/07/30 00:39:04;;;;;;;2.10;1.40;;;24.90;41.40;;;;;;5051664;28;20024;-61
2021/07/30 00:41:35;;;;;;;2.67;1.50;;;24.90;41.40;;;;;;5052430;28;20536;-61
2021/07/30 00:44:02;;;;;;;2.40;1.58;;;24.90;41.40;;;;;;5052947;28;20113;-60
2021/07/30 00:46:28;;;;;;;1.67;1.23;;;24.90;41.40;;;;;;5052936;28;20037;-60
2021/07/30 00:48:54;;;;;;;2.13;1.50;;;24.80;41.30;;;;;;5054124;28;20037;-61
2021/07/30 00:51:22;;;;;;;2.50;1.50;;;24.90;41.40;;;;;;5051257;28;20040;-60
2021/07/30 00:53:49;;;;;;;1.83;1.40;;;24.80;41.20;;;;;;5052516;28;20376;-60
2021/07/30 00:56:16;;;;;;;1.65;1.23;;;24.80;41.20;;;;;;5051362;28;20033;-60
2021/07/30 00:58:43;;;;;;;2.00;1.42;;;24.80;41.20;;;;;;5051340;28;20120;-61
2021/07/30 01:01:09;;;;;;;2.25;1.80;;;24.80;41.20;;;;;;5035826;28;20436;-60
2021/07/30 01:03:35;;;;;;;2.17;1.60;;;24.80;41.20;;;;;;5035948;28;20040;-62
2021/07/30 01:06:01;;;;;;;2.28;2.00;;;24.80;41.20;;;;;;5053965;28;20333;-61
2021/07/30 01:08:27;;;;;;;2.80;1.50;;;24.80;41.20;;;;;;5053726;28;20021;-61
2021/07/30 01:10:53;;;;;;;1.90;1.70;;;24.80;41.20;;;;;;5052903;28;20198;-61
2021/07/30 01:13:19;;;;;;;2.20;1.40;;;24.70;41.10;;;;;;5048620;28;20025;-60
2021/07/30 01:15:45;;;;;;;2.75;1.48;;;24.80;41.10;;;;;;5049919;28;20478;-63
2021/07/30 01:18:11;;;;;;;2.42;1.75;;;24.70;41.10;;;;;;5052872;28;20029;-62
2021/07/30 01:20:42;;;;;;;2.25;1.73;;;24.70;41.10;;;;;;5053775;28;20425;-61
2021/07/30 01:23:10;;;;;;;2.03;1.60;;;24.70;41.10;;;;;;5052604;28;20036;-62
2021/07/30 01:25:36;;;;;;;2.15;1.48;;;24.70;41.10;;;;;;5035355;28;20025;-60
2021/07/30 01:28:03;;;;;;;2.90;1.58;;;24.70;41.10;;;;;;5053451;28;20024;-62
2021/07/30 01:30:28;;;;;;;2.67;1.70;;;24.70;41.10;;;;;;5035727;28;20423;-60
2021/07/30 01:32:54;;;;;;;2.17;1.70;;;24.70;41.10;;;;;;5052335;28;20116;-61
2021/07/30 01:35:20;;;;;;;2.55;1.70;;;24.70;41.20;;;;;;5053285;28;20433;-61
2021/07/30 01:37:46;;;;;;;2.38;1.55;;;24.70;41.20;;;;;;5035779;28;20071;-61
2021/07/30 01:40:12;;;;;;;2.40;1.67;;;24.70;41.20;;;;;;5053496;28;20029;-60
2021/07/30 01:42:39;;;;;;;2.47;1.42;;;24.60;41.20;;;;;;5053684;28;20025;-61
2021/07/30 01:45:06;;;;;;;2.70;1.90;;;24.60;41.20;;;;;;5052789;28;20040;-61
2021/07/30 01:47:34;;;;;;;3.20;1.90;;;24.60;41.20;;;;;;5035327;28;20036;-62
2021/07/30 01:50:01;;;;;;;2.75;1.73;;;24.60;41.20;;;;;;5052097;28;20025;-62
2021/07/30 01:52:27;;;;;;;2.40;1.60;;;24.60;41.20;;;;;;5034142;28;20131;-61
2021/07/30 01:54:53;;;;;;;2.50;1.40;;;24.60;41.20;;;;;;5034933;28;20115;-61
2021/07/30 01:57:19;;;;;;;2.42;1.65;;;24.60;41.20;;;;;;5051039;28;20051;-62
2021/07/30 01:59:45;;;;;;;2.75;1.95;;;24.60;41.20;;;;;;5036401;28;20108;-61
2021/07/30 02:02:11;;;;;;;1.65;1.50;;;24.60;41.20;;;;;;5053205;28;20024;-61
2021/07/30 02:04:37;;;;;;;2.40;1.80;;;24.60;41.20;;;;;;5053078;28;20021;-61
2021/07/30 02:07:03;;;;;;;2.80;1.70;;;24.60;41.20;;;;;;5053683;28;20021;-60
2021/07/30 02:09:29;;;;;;;3.45;2.05;;;24.50;41.10;;;;;;5053300;28;20020;-61
2021/07/30 02:11:56;;;;;;;2.83;2.03;;;24.50;41.20;;;;;;5052887;28;20415;-62
2021/07/30 02:14:28;;;;;;;2.55;1.70;;;24.50;41.20;;;;;;5051933;28;20313;-62
2021/07/30 02:16:58;;;;;;;2.65;1.85;;;24.50;41.20;;;;;;5032949;28;20039;-61
2021/07/30 02:19:24;;;;;;;3.40;1.90;;;24.50;41.20;;;;;;5051647;28;20028;-61
2021/07/30 02:21:54;;;;;;;2.42;1.60;;;24.50;41.20;;;;;;5050971;28;20098;-61
2021/07/30 02:24:20;;;;;;;2.20;1.88;;;24.50;41.20;;;;;;5035243;28;20037;-61
2021/07/30 02:26:46;;;;;;;2.20;1.73;;;24.50;41.20;;;;;;5047621;28;20059;-61
2021/07/30 02:29:12;;;;;;;2.33;1.70;;;24.50;41.10;;;;;;5052836;28;20032;-62
2021/07/30 02:31:39;;;;;;;1.73;1.38;;;24.50;41.10;;;;;;5051138;28;20032;-62
2021/07/30 02:34:05;;;;;;;2.63;1.88;;;24.40;41.10;;;;;;5025386;28;20036;-62
2021/07/30 02:36:31;;;;;;;2.40;1.88;;;24.40;41.10;;;;;;5052239;28;20033;-61
2021/07/30 02:38:57;;;;;;;2.45;1.60;;;24.40;41.10;;;;;;5051969;28;20632;-61
2021/07/30 02:41:23;;;;;;;2.85;1.90;;;24.40;41.10;;;;;;5050336;28;20056;-61
2021/07/30 02:43:48;;;;;;;2.60;1.65;;;24.40;41.10;;;;;;5034188;28;20025;-62
2021/07/30 02:46:16;;;;;;;2.28;1.73;;;24.40;41.10;;;;;;5053310;28;20028;-61
2021/07/30 02:48:43;;;;;;;1.40;1.20;;;24.40;41.10;;;;;;5051868;28;20051;-62
2021/07/30 02:51:09;;;;;;;2.22;1.70;;;24.40;41.20;;;;;;5052110;28;20033;-61
2021/07/30 02:53:35;;;;;;;2.40;2.00;;;24.40;41.20;;;;;;5051779;28;20095;-61
2021/07/30 02:56:01;;;;;;;1.98;1.50;;;24.40;41.30;;;;;;5051972;28;20044;-62
2021/07/30 02:58:26;;;;;;;2.60;1.40;;;24.40;41.30;;;;;;5051724;28;20056;-62
2021/07/30 03:00:52;;;;;;;2.53;1.60;;;24.40;41.30;;;;;;5034959;28;20033;-61
2021/07/30 03:03:18;;;;;;;2.05;1.70;;;24.30;41.30;;;;;;5034056;28;20093;-61
2021/07/30 03:05:46;;;;;;;1.90;1.50;;;24.30;41.30;;;;;;5051223;28;20121;-62
2021/07/30 03:08:12;;;;;;;2.60;1.50;;;24.30;41.30;;;;;;5032759;28;20021;-62
2021/07/30 03:10:38;;;;;;;2.90;1.80;;;24.30;41.30;;;;;;5051743;28;20457;-61
2021/07/30 03:13:04;;;;;;;2.08;1.40;;;24.30;41.30;;;;;;5051405;28;20349;-61
2021/07/30 03:15:29;;;;;;;2.75;1.77;;;24.30;41.30;;;;;;5052600;28;20072;-61
2021/07/30 03:17:55;;;;;;;2.67;1.80;;;24.30;41.30;;;;;;5051673;28;20021;-60
2021/07/30 03:20:21;;;;;;;3.10;1.77;;;24.30;41.30;;;;;;5052031;28;20021;-61
2021/07/30 03:22:47;;;;;;;1.77;1.45;;;24.30;41.40;;;;;;5052329;28;20085;-60
2021/07/30 03:25:13;;;;;;;2.50;1.60;;;24.30;41.40;;;;;;5051397;28;20340;-60
2021/07/30 03:27:38;;;;;;;2.45;1.70;;;24.30;41.40;;;;;;5052131;28;20025;-60
2021/07/30 03:30:07;;;;;;;2.20;1.70;;;24.30;41.40;;;;;;5035081;28;20029;-59
2021/07/30 03:32:33;;;;;;;2.42;1.40;;;24.30;41.40;;;;;;5052534;28;20475;-60
2021/07/30 03:34:59;;;;;;;1.95;1.60;;;24.30;41.40;;;;;;5052694;28;20032;-62
2021/07/30 03:37:24;;;;;;;1.33;1.20;;;24.30;41.40;;;;;;5050776;28;20130;-60
2021/07/30 03:39:50;;;;;;;2.38;1.52;;;24.20;41.40;;;;;;5034554;28;20346;-61
2021/07/30 03:42:16;;;;;;;1.98;1.50;;;24.20;41.40;;;;;;5035796;28;20052;-60
2021/07/30 03:44:42;;;;;;;2.65;1.90;;;24.20;41.40;;;;;;5053380;28;20068;-60
2021/07/30 03:47:08;;;;;;;1.90;1.67;;;24.20;41.40;;;;;;5053347;28;20099;-61
2021/07/30 03:49:34;;;;;;;1.98;1.50;;;24.20;41.40;;;;;;5035534;28;20036;-61
2021/07/30 03:51:59;;;;;;;2.67;1.50;;;24.20;41.40;;;;;;5053282;28;20025;-62
2021/07/30 03:54:25;;;;;;;2.85;1.67;;;24.20;41.50;;;;;;5053141;28;20021;-60
2021/07/30 03:56:51;;;;;;;2.42;1.83;;;24.20;41.50;;;;;;5052376;28;20048;-61
2021/07/30 03:59:17;;;;;;;2.70;1.40;;;24.20;41.50;;;;;;5053596;28;20033;-62
2021/07/30 04:01:47;;;;;;;2.13;1.92;;;24.20;41.50;;;;;;5052969;28;20352;-60
2021/07/30 04:04:16;;;;;;;2.47;1.67;;;24.20;41.50;;;;;;5052509;28;20024;-60
2021/07/30 04:06:44;;;;;;;2.90;1.80;;;24.20;41.50;;;;;;5052794;28;20032;-60
2021/07/30 04:09:13;;;;;;;3.85;1.75;;;24.20;41.60;;;;;;5049961;28;20037;-60
2021/07/30 04:11:40;;;;;;;1.70;1.42;;;24.20;41.60;;;;;;5052069;28;20111;-60
2021/07/30 04:14:07;;;;;;;2.25;1.42;;;24.20;41.70;;;;;;5051985;28;20041;-62
2021/07/30 04:16:34;;;;;;;2.58;1.70;;;24.20;41.70;;;;;;5055255;28;20041;-60
2021/07/30 04:19:01;;;;;;;2.58;1.73;;;24.20;41.70;;;;;;5056198;28;20037;-60
2021/07/30 04:21:27;;;;;;;2.70;1.38;;;24.20;41.70;;;;;;5057147;28;20039;-60
2021/07/30 04:23:53;;;;;;;1.70;1.50;;;24.20;41.80;;;;;;5038932;28;20044;-60
2021/07/30 04:26:19;;;;;;;2.15;1.70;;;24.20;41.80;;;;;;5038275;28;20021;-61
2021/07/30 04:28:45;;;;;;;2.95;1.70;;;24.20;41.80;;;;;;5056707;28;20059;-61
2021/07/30 04:31:11;;;;;;;3.15;1.60;;;24.20;41.80;;;;;;5038344;28;20127;-61
2021/07/30 04:33:36;;;;;;;3.40;1.40;;;24.10;41.80;;;;;;5038178;28;20051;-61
2021/07/30 04:36:02;;;;;;;1.95;1.40;;;24.20;41.80;;;;;;5056119;28;20056;-62
2021/07/30 04:38:28;;;;;;;2.00;1.52;;;24.20;41.90;;;;;;5038155;28;20055;-62
2021/07/30 04:40:54;;;;;;;2.47;1.60;;;24.10;41.80;;;;;;5037760;28;20024;-62
2021/07/30 04:43:20;;;;;;;2.25;1.45;;;24.10;41.80;;;;;;5055964;28;20031;-61
2021/07/30 04:45:45;;;;;;;2.60;1.45;;;24.10;41.90;;;;;;5056634;28;20036;-61
2021/07/30 04:48:11;;;;;;;2.60;1.67;;;24.10;41.90;;;;;;5056331;28;20348;-60
2021/07/30 04:50:37;;;;;;;2.00;1.40;;;24.20;42.00;;;;;;5056356;28;20120;-60
2021/07/30 04:53:03;;;;;;;3.67;1.50;;;24.20;42.00;;;;;;5037455;28;20025;-61
2021/07/30 04:55:28;;;;;;;2.08;1.38;;;24.10;42.00;;;;;;5037525;28;20040;-61
2021/07/30 04:57:54;;;;;;;2.83;1.50;;;24.10;42.00;;;;;;5055794;28;20021;-61
2021/07/30 05:00:22;;;;;;;2.92;1.73;;;24.10;42.10;;;;;;5055163;28;20328;-61
2021/07/30 05:02:51;;;;;;;3.22;1.83;;;24.10;42.10;;;;;;5038107;28;20120;-61
2021/07/30 05:05:16;;;;;;;2.42;1.67;;;24.10;42.10;;;;;;5055196;28;20025;-61
2021/07/30 05:07:43;;;;;;;5.25;2.25;;;24.10;42.20;;;;;;5055215;28;20039;-62
2021/07/30 05:10:09;;;;;;;1.67;1.45;;;24.10;42.20;;;;;;5055703;28;20033;-61
2021/07/30 05:12:35;;;;;;;2.08;1.60;;;24.10;42.20;;;;;;5055882;28;20116;-60
2021/07/30 05:15:01;;;;;;;1.98;1.50;;;24.10;42.20;;;;;;5054596;28;20081;-61
2021/07/30 05:17:26;;;;;;;3.35;1.98;;;24.10;42.30;;;;;;5054823;28;20127;-62
2021/07/30 05:19:52;;;;;;;2.28;1.60;;;24.10;42.30;;;;;;5054802;28;20455;-61
2021/07/30 05:22:18;;;;;;;1.80;1.60;;;24.10;42.40;;;;;;5055867;28;20033;-61
2021/07/30 05:24:44;;;;;;;2.17;1.60;;;24.10;42.40;;;;;;5055072;28;20036;-62
2021/07/30 05:27:10;;;;;;;2.83;1.73;;;24.10;42.40;;;;;;5038004;28;20044;-61
2021/07/30 05:29:36;;;;;;;2.50;1.58;;;24.10;42.50;;;;;;5054364;28;20029;-60
2021/07/30 05:32:02;;;;;;;1.92;1.60;;;24.10;42.50;;;;;;5054173;28;20321;-61
2021/07/30 05:34:27;;;;;;;2.22;1.45;;;24.10;42.60;;;;;;5054542;28;20082;-61
2021/07/30 05:36:53;;;;;;;2.75;1.70;;;24.10;42.60;;;;;;5055300;28;20394;-61
2021/07/30 05:39:19;;;;;;;2.05;1.55;;;24.10;42.70;;;;;;5054464;28;20476;-61
2021/07/30 05:41:45;;;;;;;2.15;1.55;;;24.10;42.70;;;;;;5055453;28;20067;-62
2021/07/30 05:44:10;;;;;;;2.42;1.88;;;24.20;42.80;;;;;;5054760;28;20108;-61
2021/07/30 05:46:41;;;;;;;2.53;1.67;;;24.10;42.70;;;;;;5054929;28;20029;-62
2021/07/30 05:49:07;;;;;;;1.92;1.52;;;24.10;42.80;;;;;;5054451;28;20065;-62
2021/07/30 05:51:37;;;;;;;2.95;1.70;;;24.10;42.80;;;;;;5054700;28;20029;-61
2021/07/30 05:54:03;;;;;;;2.47;1.88;;;24.10;42.80;;;;;;5036923;28;20353;-61
2021/07/30 05:56:29;;;;;;;2.17;1.60;;;24.20;42.90;;;;;;5054718;28;20032;-61
2021/07/30 05:58:56;;;;;;;2.90;1.77;;;24.20;42.90;;;;;;5036718;28;20033;-59
2021/07/30 06:01:22;;;;;;;2.22;1.60;;;24.20;42.90;;;;;;5035241;28;20040;-62
2021/07/30 06:03:47;;;;;;;3.95;1.77;;;24.10;42.90;;;;;;5036374;28;20424;-61
2021/07/30 06:06:13;;;;;;;2.25;1.40;;;24.10;42.90;;;;;;5054477;28;20053;-60
2021/07/30 06:08:40;;;;;;;2.38;1.73;;;24.20;43.00;;;;;;5054187;28;20029;-60
2021/07/30 06:11:06;;;;;;;2.95;1.67;;;24.20;43.00;;;;;;5054433;28;20372;-60
2021/07/30 06:13:32;;;;;;;1.90;1.70;;;24.20;43.00;;;;;;5050463;28;20108;-61
2021/07/30 06:15:57;;;;;;;2.35;1.63;;;24.20;43.00;;;;;;5046836;28;20124;-61
2021/07/30 06:18:23;;;;;;;2.20;1.60;;;24.20;43.10;;;;;;5053567;28;20025;-62
2021/07/30 06:20:51;;;;;;;2.55;1.63;;;24.20;43.10;;;;;;5054303;28;20123;-59
2021/07/30 06:23:16;;;;;;;2.65;1.73;;;24.20;43.10;;;;;;5052376;28;20355;-60
2021/07/30 06:25:42;;;;;;;2.38;1.55;;;24.20;43.10;;;;;;5053722;28;20055;-61
2021/07/30 06:28:08;;;;;;;2.03;1.48;;;24.20;43.20;;;;;;5053356;28;20439;-60
2021/07/30 06:30:34;;;;;;;2.08;1.45;;;24.20;43.10;;;;;;5054293;28;20029;-61
2021/07/30 06:33:07;;;;;;;2.25;1.58;;;24.20;43.10;;;;;;5052569;28;20364;-59
2021/07/30 06:35:32;;;;;;;2.08;1.60;;;24.20;43.20;;;;;;5053953;28;20029;-60
2021/07/30 06:37:58;;;;;;;2.65;1.50;;;24.20;43.20;;;;;;5053657;28;20110;-59
2021/07/30 06:40:24;;;;;;;2.83;1.55;;;24.20;43.20;;;;;;5054738;28;20112;-60
2021/07/30 06:42:50;;;;;;;2.45;1.75;;;24.20;43.20;;;;;;5053879;28;20061;-60
2021/07/30 06:45:16;;;;;;;2.67;1.77;;;24.30;43.30;;;;;;5052577;28;20068;-63
2021/07/30 06:47:41;;;;;;;1.65;1.30;;;24.30;43.40;;;;;;5054046;28;20077;-62
2021/07/30 06:50:08;;;;;;;2.40;1.60;;;24.30;43.40;;;;;;5053237;28;20369;-62
2021/07/30 06:52:34;;;;;;;2.03;1.40;;;24.40;43.50;;;;;;5054013;28;20029;-62
2021/07/30 06:55:02;;;;;;;3.03;1.85;;;24.40;43.50;;;;;;5035982;28;20452;-62
2021/07/30 06:57:27;;;;;;;3.05;1.52;;;24.40;43.50;;;;;;5048305;28;20407;-63
2021/07/30 06:59:53;;;;;;;3.63;1.70;;;24.40;43.40;;;;;;5043736;28;20174;-62
2021/07/30 07:02:19;;;;;;;2.15;1.40;;;24.50;43.40;;;;;;5051920;28;20033;-63
2021/07/30 07:04:45;;;;;;;2.25;1.52;;;24.50;43.40;;;;;;5045102;28;20036;-62
2021/07/30 07:07:11;;;;;;;1.88;1.20;;;24.50;43.30;;;;;;5052210;28;20100;-62
2021/07/30 07:09:37;;;;;;;2.88;1.52;;;24.60;43.30;;;;;;5052582;28;20036;-61
2021/07/30 07:12:04;;;;;;;2.33;1.38;;;24.60;43.30;;;;;;5052096;28;20045;-62
2021/07/30 07:14:30;;;;;;;2.47;1.65;;;24.60;43.20;;;;;;5047912;28;20033;-61
2021/07/30 07:16:56;;;;;;;1.95;1.40;;;24.60;43.20;;;;;;5053085;28;20124;-61
2021/07/30 07:19:23;;;;;;;3.08;1.50;;;24.70;43.20;;;;;;5052307;28;20028;-63
2021/07/30 07:21:50;;;;;;;2.42;1.60;;;24.70;43.20;;;;;;5052408;28;20463;-63
2021/07/30 07:24:17;;;;;;;2.10;1.40;;;24.70;43.20;;;;;;5034053;28;20106;-61
2021/07/30 07:26:43;;;;;;;2.60;1.50;;;24.70;43.20;;;;;;5052200;28;20432;-62
2021/07/30 07:29:09;;;;;;;2.60;1.35;;;24.80;43.20;;;;;;5052149;28;20372;-62
2021/07/30 07:31:35;;;;;;;1.98;1.40;;;24.80;43.20;;;;;;5052890;28;20131;-63
2021/07/30 07:34:01;;;;;;;2.47;1.30;;;24.80;43.20;;;;;;5048631;28;20518;-64
2021/07/30 07:36:28;;;;;;;2.50;1.20;;;24.80;43.20;;;;;;5051635;28;20037;-62
2021/07/30 07:38:54;;;;;;;2.63;1.63;;;24.80;43.10;;;;;;5052149;28;20052;-61
2021/07/30 07:41:20;;;;;;;2.17;1.42;;;24.90;43.20;;;;;;5052475;28;20492;-62
2021/07/30 07:43:46;;;;;;;2.13;1.63;;;24.90;43.20;;;;;;5052406;28;20121;-62
2021/07/30 07:46:12;;;;;;;2.72;1.88;;;24.90;43.10;;;;;;5052432;28;20021;-62
2021/07/30 07:48:38;;;;;;;1.65;1.33;;;25.00;43.10;;;;;;5035131;28;20112;-62
2021/07/30 07:51:04;;;;;;;1.55;1.20;;;25.00;43.20;;;;;;5053524;28;20488;-64
2021/07/30 07:53:29;;;;;;;2.72;1.60;;;25.00;43.10;;;;;;5056979;28;20658;-62
2021/07/30 07:56:03;;;;;;;2.85;1.52;;;25.00;43.10;;;;;;5055795;28;20069;-63
2021/07/30 07:58:30;;;;;;;1.70;1.17;;;25.00;43.10;;;;;;5033230;28;20039;-61
2021/07/30 08:00:56;;;;;;;2.78;1.58;;;25.00;43.10;;;;;;5056596;28;20083;-61
2021/07/30 08:03:22;;;;;;;2.88;1.83;;;25.00;43.10;;;;;;5055865;28;20029;-61
2021/07/30 08:05:48;;;;;;;2.78;1.60;;;25.10;43.20;;;;;;5037197;28;20036;-59
2021/07/30 08:08:14;;;;;;;1.63;1.30;;;25.10;43.20;;;;;;5055794;28;20076;-63
2021/07/30 08:10:40;;;;;;;2.80;1.55;;;25.10;43.20;;;;;;5055603;28;20519;-62
2021/07/30 08:13:06;;;;;;;2.25;1.50;;;25.10;43.30;;;;;;5055154;28;20052;-63
2021/07/30 08:15:32;;;;;;;2.92;1.65;;;25.10;43.30;;;;;;5045007;28;20045;-62
2021/07/30 08:17:58;;;;;;;1.85;1.30;;;25.20;43.40;;;;;;5055357;28;20108;-63
2021/07/30 08:20:24;;;;;;;2.58;1.60;;;25.20;43.40;;;;;;5055803;28;20518;-62
2021/07/30 08:22:49;;;;;;;2.00;1.40;;;25.20;43.50;;;;;;5054868;28;20089;-63
2021/07/30 08:25:15;;;;;;;3.72;1.63;;;25.20;43.50;;;;;;5056228;28;20025;-59
2021/07/30 08:27:41;;;;;;;2.58;1.38;;;25.30;43.50;;;;;;5055884;28;20029;-63
2021/07/30 08:30:08;;;;;;;3.30;1.58;;;25.30;43.60;;;;;;5055569;28;20021;-62
2021/07/30 08:32:34;;;;;;;2.30;1.38;;;25.30;43.50;;;;;;5055263;28;20064;-62
2021/07/30 08:35:01;;;;;;;2.45;1.35;;;25.30;43.50;;;;;;5055050;28;20037;-63
2021/07/30 08:37:27;;;;;;;2.60;1.65;;;25.30;43.50;;;;;;5054878;28;20048;-62
2021/07/30 08:39:53;;;;;;;2.17;1.48;;;25.30;43.50;;;;;;5049447;28;20381;-62
2021/07/30 08:42:19;;;;;;;3.40;1.67;;;25.30;43.50;;;;;;5029494;28;20179;-62
2021/07/30 08:44:46;;;;;;;2.03;1.30;;;25.40;43.50;;;;;;5044463;28;20032;-63
2021/07/30 08:47:13;;;;;;;1.95;1.20;;;25.40;43.50;;;;;;5046110;28;20029;-61
2021/07/30 08:49:40;;;;;;;2.03;1.55;;;25.40;43.40;;;;;;5056182;28;20037;-62
2021/07/30 08:52:10;;;;;;;1.98;1.38;;;25.40;43.40;;;;;;5056379;28;20126;-62
2021/07/30 08:54:37;;;;;;;1.52;1.10;;;25.40;43.40;;;;;;5056153;28;20142;-63
2021/07/30 08:57:08;;;;;;;2.60;1.52;;;25.40;43.40;;;;;;5056225;28;20041;-61
2021/07/30 08:59:38;;;;;;;1.88;1.13;;;25.50;43.40;;;;;;5047715;28;20029;-64
2021/07/30 09:02:05;;;;;;;1.58;1.02;;;25.40;43.30;;;;;;5055220;28;20029;-63
2021/07/30 09:04:31;;;;;;;2.55;1.42;;;25.40;43.30;;;;;;5055768;28;20025;-61
2021/07/30 09:06:58;;;;;;;2.03;1.23;;;25.50;43.40;;;;;;5055057;28;20112;-60
2021/07/30 09:09:24;;;;;;;1.05;0.90;;;25.50;43.40;;;;;;5055955;28;20029;-61
2021/07/30 09:11:55;;;;;;;1.65;1.10;;;25.50;43.30;;;;;;5055519;28;20082;-60
2021/07/30 09:14:41;;;;;;;2.08;1.13;;;25.50;43.30;;;;;;5045562;28;20061;-62
2021/07/30 09:17:07;;;;;;;2.53;1.17;;;25.60;43.30;;;;;;5055628;28;20066;-62
2021/07/30 09:19:34;;;;;;;2.13;1.13;;;25.50;43.20;;;;;;5054153;28;20032;-61
2021/07/30 09:22:05;;;;;;;1.10;0.93;;;25.60;43.20;;;;;;5055005;28;20355;-56
2021/07/30 09:24:42;;;;;;;1.95;1.00;;;25.60;43.20;;;;;;5055714;28;20056;-62
2021/07/30 09:27:10;;;;;;;2.17;1.02;;;25.60;43.20;;;;;;5055667;28;20040;-62
2021/07/30 09:29:38;;;;;;;1.85;1.10;;;25.60;43.20;;;;;;5055492;28;20475;-58
2021/07/30 09:32:09;;;;;;;1.83;0.95;;;25.60;43.20;;;;;;5055530;28;20425;-60
2021/07/30 09:34:43;;;;;;;1.42;0.88;;;25.60;43.10;;;;;;5037703;28;20352;-61
2021/07/30 09:37:10;;;;;;;;;;;25.60;43.00;;;;;;5055183;28;20064;-64
2021/07/30 09:39:38;;;;;;;1.63;1.00;;;25.60;43.10;;;;;;5054169;28;20325;-61
2021/07/30 09:42:06;;;;;;;1.00;0.82;;;25.60;43.10;;;;;;5046352;28;20037;-61
2021/07/30 09:44:35;;;;;;;3.55;1.25;;;25.60;43.10;;;;;;5054946;28;20103;-58
2021/07/30 09:47:06;;;;;;;1.63;0.82;;;25.70;43.10;;;;;;5054367;28;20044;-57
2021/07/30 09:49:59;;;;;;;2.42;1.10;;;25.70;43.10;;;;;;5055051;28;20043;-56
2021/07/30 09:52:27;;;;;;;1.40;0.88;;;25.80;43.10;;;;;;5055438;28;20348;-59
2021/07/30 09:54:58;;;;;;;1.27;0.85;;;25.80;43.10;;;;;;5054801;28;20017;-59
2021/07/30 09:57:26;;;;;;;2.85;1.10;;;25.80;43.00;;;;;;5054875;28;20333;-62
2021/07/30 10:00:05;;;;;;;3.72;0.93;;;25.80;43.00;;;;;;5054864;28;20048;-61
2021/07/30 10:02:34;;;;;;;1.65;1.08;;;25.90;43.00;;;;;;5037908;28;20035;-59
2021/07/30 10:05:01;;;;;;;1.02;0.90;;;25.90;42.90;;;;;;5051553;28;20411;-59
2021/07/30 10:07:29;;;;;;;1.58;0.85;;;25.90;42.90;;;;;;5054741;28;20414;-63
2021/07/30 10:10:15;;;;;;;0.82;0.70;;;25.90;42.80;;;;;;5053701;28;20029;-59
2021/07/30 10:12:52;;;;;;;1.48;1.00;;;26.00;42.90;;;;;;5050310;28;20140;-59
2021/07/30 10:15:18;;;;;;;2.13;0.82;;;26.00;42.90;;;;;;5049129;28;20112;-59
2021/07/30 10:17:48;;;;;;;2.15;1.05;;;26.00;42.90;;;;;;5051957;28;20436;-61
2021/07/30 10:20:16;;;;;;;2.72;1.00;;;26.00;42.90;;;;;;5053293;28;20067;-57
2021/07/30 10:23:03;;;;;;;2.05;1.20;;;26.10;43.00;;;;;;5035129;28;20024;-59
2021/07/30 10:25:38;;;;;;;1.83;1.00;;;26.10;42.90;;;;;;5035853;28;20411;-62
2021/07/30 10:28:10;;;;;;;1.55;0.93;;;26.10;42.90;;;;;;5049984;28;20124;-60
2021/07/30 10:31:05;;;;;;;1.80;1.20;;;26.10;42.90;;;;;;5052276;28;20021;-57
2021/07/30 10:33:44;;;;;;;0.82;0.80;;;26.10;42.80;;;;;;5050998;28;20094;-60
2021/07/30 10:36:30;;;;;;;2.97;1.00;;;26.20;42.90;;;;;;5052794;28;20563;-57
2021/07/30 10:39:18;;;;;;;1.25;1.00;;;26.20;42.90;;;;;;5051592;28;20036;-60
2021/07/30 10:42:11;;;;;;;1.13;1.00;;;26.20;42.90;;;;;;5050829;28;20038;-56
2021/07/30 10:45:14;;;;;;;7.57;2.20;;;26.20;42.80;;;;;;5043977;28;20044;-62
2021/07/30 10:47:40;;;;;;;1.48;0.93;;;26.20;42.90;;;;;;5045758;28;20053;-60
2021/07/30 10:50:45;;;;;;;0.95;0.70;;;26.20;43.00;;;;;;5051095;28;20035;-57
2021/07/30 10:53:38;;;;;;;2.47;1.45;;;26.30;43.10;;;;;;5047428;28;20098;-59
2021/07/30 10:56:28;;;;;;;1.70;1.10;;;26.30;43.20;;;;;;5046913;28;20049;-57
2021/07/30 10:58:55;;;;;;;2.15;1.10;;;26.30;43.20;;;;;;5031486;28;20068;-61
2021/07/30 11:01:27;;;;;;;1.75;1.02;;;26.30;43.10;;;;;;5051048;28;20032;-63
2021/07/30 11:03:58;;;;;;;1.88;1.20;;;26.30;43.10;;;;;;5033067;28;20051;-59
2021/07/30 11:06:36;;;;;;;1.52;0.80;;;26.40;43.10;;;;;;5046666;28;20043;-59
2021/07/30 11:09:03;;;;;;;1.20;0.82;;;26.40;43.10;;;;;;5031683;28;20670;-58
2021/07/30 11:11:35;;;;;;;1.13;1.02;;;26.40;43.10;;;;;;5050351;28;20049;-61
2021/07/30 11:14:15;;;;;;;1.08;0.80;;;26.40;43.00;;;;;;5047182;28;20033;-60
2021/07/30 11:16:43;;;;;;;1.52;1.10;;;26.40;43.00;;;;;;5032293;28;20452;-59
2021/07/30 11:19:11;;;;;;;1.40;1.10;;;26.40;43.00;;;;;;5050232;28;20040;-61
2021/07/30 11:21:36;;;;;;;1.88;1.08;;;26.40;42.90;;;;;;5046114;28;20025;-59
2021/07/30 11:24:05;;;;;;;0.73;0.60;;;26.40;42.90;;;;;;5047418;28;20456;-54
2021/07/30 11:26:35;;;;;;;1.10;0.82;;;26.40;42.90;;;;;;5052609;28;20029;-59
2021/07/30 11:29:06;;;;;;;1.77;1.10;;;26.40;42.90;;;;;;5053910;28;20036;-60
2021/07/30 11:31:32;;;;;;;1.13;0.95;;;26.40;42.90;;;;;;5034827;28;20087;-60
2021/07/30 11:33:59;;;;;;;1.42;1.00;;;26.50;43.00;;;;;;5052339;28;20453;-60
2021/07/30 11:36:25;;;;;;;3.22;0.98;;;26.50;43.00;;;;;;5050542;28;20034;-61
2021/07/30 11:38:53;;;;;;;0.98;0.85;;;26.50;43.00;;;;;;5054145;28;20040;-61
2021/07/30 11:41:20;;;;;;;1.70;0.90;;;26.50;42.90;;;;;;5051637;28;20367;-59
2021/07/30 11:44:08;;;;;;;1.35;0.90;;;26.50;42.90;;;;;;5053835;28;21302;-57
2021/07/30 11:46:35;;;;;;;0.88;0.80;;;26.50;42.80;;;;;;5051305;28;20090;-59
2021/07/30 11:49:03;;;;;;;1.20;0.80;;;26.50;42.80;;;;;;5051858;28;20028;-58
2021/07/30 11:51:29;;;;;;;1.25;1.00;;;26.50;42.70;;;;;;5053833;28;20344;-57
2021/07/30 11:53:56;;;;;;;1.83;1.00;;;26.50;42.70;;;;;;5053922;28;20507;-59
2021/07/30 11:56:23;;;;;;;1.25;0.93;;;26.50;42.70;;;;;;5053932;28;20044;-58
2021/07/30 11:59:02;;;;;;;1.10;0.70;;;26.60;42.70;;;;;;5053809;28;20120;-58
2021/07/30 12:01:30;;;;;;;1.10;1.00;;;26.60;42.70;;;;;;5051863;28;20064;-57
2021/07/30 12:04:14;;;;;;;0.80;0.70;;;26.60;42.70;;;;;;5048743;28;20082;-56
2021/07/30 12:06:46;;;;;;;3.15;0.80;;;26.70;42.70;;;;;;5051802;28;20028;-60
2021/07/30 12:09:14;;;;;;;1.13;0.85;;;26.70;42.70;;;;;;5051806;28;20503;-57
2021/07/30 12:11:49;;;;;;;1.08;0.98;;;26.70;42.70;;;;;;5031974;28;20054;-61
2021/07/30 12:14:17;;;;;;;1.10;1.00;;;26.70;42.60;;;;;;5031389;28;20033;-62
2021/07/30 12:16:44;;;;;;;1.25;1.10;;;26.70;42.60;;;;;;5032208;28;20041;-55
2021/07/30 12:19:10;;;;;;;1.65;1.00;;;26.70;42.60;;;;;;5031062;28;20026;-55
2021/07/30 12:21:53;;;;;;;1.58;1.10;;;26.70;42.60;;;;;;5032605;28;20061;-58
2021/07/30 12:24:20;;;;;;;2.42;1.30;;;26.70;42.60;;;;;;5031309;28;20448;-57
2021/07/30 12:26:46;;;;;;;1.02;0.93;;;26.70;42.50;;;;;;5030691;28;20349;-59
2021/07/30 12:29:42;;;;;;;1.30;1.00;;;26.70;42.50;;;;;;5033950;28;20017;-57
2021/07/30 12:32:14;;;;;;;1.00;0.90;;;26.80;42.50;;;;;;5032368;28;20349;-60
2021/07/30 12:35:14;;;;;;;1.27;1.00;;;26.80;42.60;;;;;;5024567;28;20026;-57
2021/07/30 12:38:02;;;;;;;0.90;0.90;;;26.80;42.50;;;;;;5027675;28;20041;-59
2021/07/30 12:40:28;;;;;;;1.20;1.00;;;26.80;42.50;;;;;;5031837;28;20029;-58
2021/07/30 12:43:19;;;;;;;1.48;1.10;;;26.80;42.60;;;;;;5028738;28;20088;-56
2021/07/30 12:45:51;;;;;;;1.20;1.10;;;26.80;42.60;;;;;;5033441;28;20484;-60
2021/07/30 12:48:22;;;;;;;1.23;1.08;;;26.80;42.60;;;;;;5028801;28;20056;-60
2021/07/30 12:50:49;;;;;;;1.23;0.93;;;26.80;42.60;;;;;;5031033;28;20460;-58
2021/07/30 12:53:21;;;;;;;2.20;1.40;;;26.80;42.60;;;;;;5031550;28;20060;-61